createdAt,value
2022-11-26T00:02:18.931Z,43.35
2022-11-26T00:04:47.149Z,43.72
2022-11-26T00:07:18.824Z,44.33
2022-11-26T00:09:47.013Z,40.70
2022-11-26T00:12:18.615Z,43.53
2022-11-26T00:14:47.289Z,41.67
2022-11-26T00:17:16.318Z,43.15
2022-11-26T00:19:45.610Z,43.67
2022-11-26T00:22:22.805Z,44.58
2022-11-26T00:24:51.669Z,45.95
2022-11-26T00:27:21.936Z,46.00
2022-11-26T00:29:50.135Z,45.33
2022-11-26T00:32:19.832Z,43.95
2022-11-26T00:34:47.993Z,43.40
2022-11-26T00:37:21.190Z,43.65
2022-11-26T00:39:50.069Z,45.55
2022-11-26T00:42:18.845Z,43.33
2022-11-26T00:44:48.825Z,45.28
2022-11-26T00:47:17.016Z,44.17
2022-11-26T00:49:45.551Z,46.80
2022-11-26T00:52:25.840Z,43.83
2022-11-26T00:54:54.112Z,44.40
2022-11-26T00:57:22.414Z,42.28
2022-11-26T00:59:52.314Z,42.90
2022-11-26T01:02:20.659Z,42.15
2022-11-26T01:04:48.771Z,40.88
2022-11-26T01:07:16.949Z,42.50
2022-11-26T01:09:47.426Z,44.22
2022-11-26T01:12:16.238Z,41.30
2022-11-26T01:14:44.379Z,40.40
2022-11-26T01:17:13.953Z,42.85
2022-11-26T01:19:42.089Z,41.63
2022-11-26T01:22:21.905Z,42.10
2022-11-26T01:24:50.863Z,41.45
2022-11-26T01:27:21.533Z,44.20
2022-11-26T01:29:49.706Z,42.72
2022-11-26T01:32:19.295Z,43.60
2022-11-26T01:34:47.386Z,42.72
2022-11-26T01:37:15.778Z,45.13
2022-11-26T01:39:44.069Z,45.78
2022-11-26T01:42:26.206Z,46.60
2022-11-26T01:44:54.474Z,47.30
2022-11-26T01:47:26.126Z,43.90
2022-11-26T01:50:40.495Z,45.28
2022-11-26T01:53:14.381Z,42.00
2022-11-26T01:55:47.781Z,43.17
2022-11-26T01:58:22.259Z,43.53
2022-11-26T02:00:52.725Z,44.60
2022-11-26T02:03:25.813Z,45.15
2022-11-26T02:05:59.693Z,44.78
2022-11-26T02:08:31.126Z,43.25
2022-11-26T02:10:59.375Z,41.78
2022-11-26T02:13:28.714Z,38.97
2022-11-26T02:16:07.945Z,40.05
2022-11-26T02:18:42.571Z,40.50
2022-11-26T02:21:15.344Z,40.58
2022-11-26T02:26:48.769Z,41.38
2022-11-26T02:29:24.725Z,40.45
2022-11-26T02:32:00.827Z,40.03
2022-11-26T02:34:37.696Z,40.30
2022-11-26T02:37:11.492Z,43.00
2022-11-26T02:39:39.640Z,41.83
2022-11-26T02:42:24.809Z,40.78
2022-11-26T02:44:54.131Z,39.60
2022-11-26T02:47:25.653Z,42.25
2022-11-26T02:49:55.057Z,41.28
2022-11-26T02:52:24.458Z,41.08
2022-11-26T02:54:54.184Z,42.30
2022-11-26T02:57:27.823Z,42.00
2022-11-26T02:59:56.072Z,43.08
2022-11-26T03:02:33.061Z,42.65
2022-11-26T03:05:03.397Z,46.35
2022-11-26T03:07:33.610Z,45.90
2022-11-26T03:10:03.977Z,47.50
2022-11-26T03:12:32.101Z,48.22
2022-11-26T03:15:00.283Z,49.58
2022-11-26T03:17:29.825Z,48.00
2022-11-26T03:20:00.404Z,48.10
2022-11-26T03:22:28.903Z,47.90
2022-11-26T03:24:57.068Z,47.33
2022-11-26T03:27:27.328Z,45.88
2022-11-26T03:29:55.588Z,45.70
2022-11-26T03:32:23.836Z,46.92
2022-11-26T03:34:53.413Z,46.70
2022-11-26T03:37:21.708Z,45.05
2022-11-26T03:39:49.840Z,48.47
2022-11-26T03:42:18.076Z,48.20
2022-11-26T03:44:46.312Z,49.47
2022-11-26T03:47:14.432Z,49.60
2022-11-26T03:49:42.599Z,50.22
2022-11-26T03:52:14.221Z,53.13
2022-11-26T03:54:42.438Z,52.55
2022-11-26T03:57:10.844Z,53.50
2022-11-26T03:59:39.011Z,53.03
2022-11-26T04:02:07.230Z,53.47
2022-11-26T04:04:35.445Z,53.90
2022-11-26T04:07:03.672Z,55.42
2022-11-26T04:09:33.346Z,55.03
2022-11-26T04:12:01.520Z,54.78
2022-11-26T04:14:31.970Z,57.05
2022-11-26T04:17:00.419Z,57.03
2022-11-26T04:19:28.691Z,54.33
2022-11-26T04:21:56.923Z,55.72
2022-11-26T04:24:25.125Z,53.72
2022-11-26T04:26:54.737Z,53.20
2022-11-26T04:29:22.885Z,52.03
2022-11-26T04:31:51.126Z,52.67
2022-11-26T04:34:19.390Z,52.67
2022-11-26T04:36:47.597Z,53.45
2022-11-26T04:39:16.056Z,55.78
2022-11-26T04:41:44.415Z,53.28
2022-11-26T04:44:13.935Z,53.40
2022-11-26T04:46:42.080Z,53.38
2022-11-26T04:49:10.302Z,54.65
2022-11-26T04:51:40.944Z,55.80
2022-11-26T04:54:12.950Z,52.15
2022-11-26T04:56:41.764Z,50.58
2022-11-26T04:59:09.924Z,53.00
2022-11-26T05:01:39.516Z,49.95
2022-11-26T05:04:07.859Z,52.85
2022-11-26T05:06:36.199Z,50.03
2022-11-26T05:09:05.900Z,49.15
2022-11-26T05:11:34.096Z,51.45
2022-11-26T05:14:02.195Z,49.17
2022-11-26T05:16:30.498Z,48.30
2022-11-26T05:19:00.285Z,47.63
2022-11-26T05:21:28.767Z,47.35
2022-11-26T05:23:56.905Z,45.97
2022-11-26T05:26:25.501Z,45.53
2022-11-26T05:28:53.752Z,46.58
2022-11-26T05:31:21.828Z,44.05
2022-11-26T05:33:50.144Z,43.53
2022-11-26T05:36:19.607Z,45.03
2022-11-26T05:38:47.886Z,43.78
2022-11-26T05:41:16.133Z,43.33
2022-11-26T05:43:44.377Z,42.28
2022-11-26T05:46:16.058Z,41.53
2022-11-26T05:48:44.363Z,40.17
2022-11-26T05:51:12.952Z,41.22
2022-11-26T05:53:42.458Z,38.83
2022-11-26T05:56:10.552Z,40.35
2022-11-26T05:58:38.772Z,36.65
2022-11-26T06:01:09.522Z,39.28
2022-11-26T06:03:38.195Z,36.72
2022-11-26T06:06:06.854Z,38.85
2022-11-26T06:08:35.134Z,37.63
2022-11-26T06:11:04.827Z,38.25
2022-11-26T06:13:33.320Z,38.22
2022-11-26T06:16:01.637Z,39.17
2022-11-26T06:18:29.872Z,37.40
2022-11-26T06:21:01.152Z,38.83
2022-11-26T06:23:29.524Z,36.80
2022-11-26T06:25:57.683Z,37.78
2022-11-26T06:28:27.560Z,36.20
2022-11-26T06:30:55.711Z,39.53
2022-11-26T06:33:23.886Z,36.63
2022-11-26T06:35:53.699Z,36.88
2022-11-26T06:38:21.888Z,37.28
2022-11-26T06:40:50.067Z,36.17
2022-11-26T06:43:18.326Z,36.60
2022-11-26T06:45:47.812Z,36.47
2022-11-26T06:48:15.966Z,36.47
2022-11-26T06:50:47.120Z,39.22
2022-11-26T06:53:15.449Z,35.83
2022-11-26T06:55:43.730Z,35.60
2022-11-26T06:58:14.685Z,35.63
2022-11-26T07:00:42.896Z,36.97
2022-11-26T07:03:12.377Z,37.75
2022-11-26T07:05:40.544Z,35.70
2022-11-26T07:08:08.738Z,35.70
2022-11-26T07:10:36.862Z,34.20
2022-11-26T07:13:05.527Z,33.75
2022-11-26T07:15:34.008Z,34.25
2022-11-26T07:18:02.148Z,33.97
2022-11-26T07:20:31.743Z,33.92
2022-11-26T07:23:02.657Z,32.97
2022-11-26T07:25:31.265Z,33.90
2022-11-26T07:27:59.410Z,34.67
2022-11-26T07:30:27.565Z,32.67
2022-11-26T07:32:55.644Z,31.52
2022-11-26T07:35:23.831Z,32.60
2022-11-26T07:37:53.566Z,33.28
2022-11-26T07:40:22.828Z,33.15
2022-11-26T07:42:53.328Z,32.85
2022-11-26T07:45:25.875Z,30.83
2022-11-26T07:47:54.036Z,32.00
2022-11-26T07:50:22.196Z,31.50
2022-11-26T07:52:54.249Z,31.17
2022-11-26T07:55:22.668Z,33.37
2022-11-26T07:57:50.881Z,32.55
2022-11-26T08:00:20.180Z,32.90
2022-11-26T08:02:48.429Z,32.17
2022-11-26T08:05:16.877Z,29.20
2022-11-26T08:07:47.291Z,30.00
2022-11-26T08:10:17.062Z,28.48
2022-11-26T08:12:45.616Z,28.77
2022-11-26T08:15:13.898Z,28.92
2022-11-26T08:17:44.407Z,28.50
2022-11-26T08:20:13.341Z,27.27
2022-11-26T08:22:41.665Z,29.45
2022-11-26T08:25:10.986Z,27.30
2022-11-26T08:27:40.461Z,28.90
2022-11-26T08:30:09.702Z,27.35
2022-11-26T08:32:38.198Z,28.45
2022-11-26T08:35:06.834Z,26.58
2022-11-26T08:37:35.273Z,24.40
2022-11-26T08:40:03.392Z,23.88
2022-11-26T08:42:32.259Z,21.05
2022-11-26T08:45:01.853Z,19.95
2022-11-26T08:47:30.082Z,20.40
2022-11-26T08:49:58.309Z,22.30
2022-11-26T08:52:26.654Z,21.33
2022-11-26T08:54:55.656Z,20.90
2022-11-26T08:57:25.965Z,20.02
2022-11-26T08:59:55.109Z,22.15
2022-11-26T09:02:24.871Z,20.20
2022-11-26T09:04:54.243Z,20.23
2022-11-26T09:07:22.448Z,20.20
2022-11-26T09:09:50.716Z,19.58
2022-11-26T09:12:19.221Z,17.95
2022-11-26T09:14:47.600Z,18.30
2022-11-26T09:17:15.768Z,18.85
2022-11-26T09:19:45.304Z,19.63
2022-11-26T09:22:13.397Z,17.83
2022-11-26T09:24:41.582Z,18.58
2022-11-26T09:27:11.465Z,17.92
2022-11-26T09:29:39.559Z,18.35
2022-11-26T09:32:25.027Z,17.80
2022-11-26T09:34:58.841Z,15.20
2022-11-26T09:37:27.019Z,16.05
2022-11-26T09:39:55.369Z,17.13
2022-11-26T09:42:38.361Z,16.27
2022-11-26T09:47:43.611Z,17.63
2022-11-26T09:50:24.725Z,18.08
2022-11-26T09:52:57.193Z,17.20
2022-11-26T09:55:28.324Z,16.83
2022-11-26T09:58:04.241Z,17.73
2022-11-26T10:00:35.315Z,18.23
2022-11-26T10:03:11.519Z,16.85
2022-11-26T10:05:45.765Z,15.73
2022-11-26T10:08:35.541Z,15.25
2022-11-26T10:11:12.357Z,17.27
2022-11-26T10:13:48.727Z,15.52
2022-11-26T10:16:28.200Z,16.25
2022-11-26T10:19:06.492Z,15.18
2022-11-26T10:21:58.245Z,15.10
2022-11-26T10:24:31.055Z,13.80
2022-11-26T10:27:02.559Z,13.70
2022-11-26T10:29:38.081Z,12.20
2022-11-26T10:32:15.530Z,12.38
2022-11-26T10:34:49.562Z,10.93
2022-11-26T10:37:19.962Z,12.18
2022-11-26T10:39:48.510Z,13.05
2022-11-26T10:42:19.861Z,13.20
2022-11-26T10:44:49.922Z,12.13
2022-11-26T10:47:25.331Z,13.48
2022-11-26T10:49:55.239Z,13.70
2022-11-26T10:52:28.108Z,14.55
2022-11-26T10:55:20.064Z,16.30
2022-11-26T10:57:52.568Z,14.73
2022-11-26T11:00:40.553Z,16.50
2022-11-26T11:03:17.249Z,17.17
2022-11-26T11:05:45.985Z,19.60
2022-11-26T11:08:29.559Z,17.92
2022-11-26T11:10:59.481Z,18.63
2022-11-26T11:13:42.145Z,18.13
2022-11-26T11:16:11.956Z,18.65
2022-11-26T11:18:50.261Z,14.70
2022-11-26T11:21:22.633Z,17.80
2022-11-26T11:24:08.136Z,18.25
2022-11-26T11:26:43.720Z,21.60
2022-11-26T11:29:33.977Z,14.85
2022-11-26T11:32:07.028Z,12.60
2022-11-26T11:34:38.580Z,12.60
2022-11-26T11:37:15.258Z,13.10
2022-11-26T11:39:45.695Z,12.32
2022-11-26T11:42:23.094Z,12.02
2022-11-26T11:44:53.885Z,13.63
2022-11-26T11:47:35.661Z,11.52
2022-11-26T11:50:17.961Z,12.98
2022-11-26T11:53:05.701Z,12.50
2022-11-26T11:55:52.333Z,11.63
2022-11-26T11:58:48.721Z,12.52
2022-11-26T12:01:27.757Z,12.68
2022-11-26T12:04:21.512Z,12.85
2022-11-26T12:07:08.561Z,13.15
2022-11-26T12:09:46.121Z,11.60
2022-11-26T12:12:22.747Z,12.13
2022-11-26T12:14:54.501Z,12.27
2022-11-26T12:17:41.333Z,12.05
2022-11-26T12:20:20.980Z,12.55
2022-11-26T12:22:58.080Z,11.90
2022-11-26T12:25:36.616Z,14.68
2022-11-26T12:28:14.830Z,11.93
2022-11-26T12:30:50.720Z,12.40
2022-11-26T12:33:24.431Z,13.77
2022-11-26T12:35:56.006Z,12.90
2022-11-26T12:38:29.778Z,16.70
2022-11-26T12:41:03.233Z,14.30
2022-11-26T12:43:44.420Z,13.68
2022-11-26T12:46:20.429Z,14.48
2022-11-26T12:48:55.804Z,14.30
2022-11-26T12:51:34.475Z,15.27
2022-11-26T12:54:12.095Z,14.45
2022-11-26T12:56:44.969Z,15.10
2022-11-26T12:59:25.434Z,14.52
2022-11-26T13:01:53.921Z,15.73
2022-11-26T13:04:43.794Z,18.40
2022-11-26T13:07:29.354Z,17.08
2022-11-26T13:10:07.316Z,15.80
2022-11-26T13:12:48.052Z,16.00
2022-11-26T13:15:23.870Z,15.82
2022-11-26T13:17:52.950Z,14.30
2022-11-26T13:20:40.330Z,14.07
2022-11-26T13:23:29.804Z,13.10
2022-11-26T13:26:30.013Z,13.27
2022-11-26T13:29:19.922Z,14.02
2022-11-26T13:32:08.448Z,13.55
2022-11-26T13:34:55.193Z,14.68
2022-11-26T13:37:55.193Z,16.80
2022-11-26T13:40:58.557Z,19.80
2022-11-26T13:44:12.465Z,20.15
2022-11-26T13:46:42.738Z,19.83
2022-11-26T13:49:17.678Z,16.52
2022-11-26T13:51:52.915Z,14.13
2022-11-26T13:54:26.613Z,17.15
2022-11-26T13:57:01.216Z,13.90
2022-11-26T13:59:30.616Z,16.98
2022-11-26T14:01:59.228Z,17.23
2022-11-26T14:04:54.538Z,15.95
2022-11-26T14:07:23.042Z,18.17
2022-11-26T14:09:54.745Z,14.48
2022-11-26T14:12:24.600Z,15.95
2022-11-26T14:14:53.216Z,13.82
2022-11-26T14:17:23.650Z,13.02
2022-11-26T14:20:13.378Z,13.13
2022-11-26T14:22:41.827Z,15.15
2022-11-26T14:25:14.512Z,16.52
2022-11-26T14:27:51.089Z,14.93
2022-11-26T14:30:25.264Z,11.93
2022-11-26T14:33:04.969Z,14.27
2022-11-26T14:35:36.732Z,13.45
2022-11-26T14:38:07.350Z,13.50
2022-11-26T14:40:37.146Z,14.93
2022-11-26T14:43:17.288Z,14.38
2022-11-26T14:45:48.160Z,13.18
2022-11-26T14:48:25.547Z,14.88
2022-11-26T14:51:00.232Z,13.35
2022-11-26T14:53:33.310Z,13.60
2022-11-26T14:56:01.958Z,14.55
2022-11-26T14:58:35.837Z,19.00
2022-11-26T15:01:18.198Z,20.83
2022-11-26T15:03:56.168Z,18.40
2022-11-26T15:06:29.698Z,21.85
2022-11-26T15:09:12.045Z,19.67
2022-11-26T15:11:44.880Z,24.02
2022-11-26T15:14:21.898Z,18.70
2022-11-26T15:16:57.652Z,16.70
2022-11-26T15:19:27.378Z,17.92
2022-11-26T15:21:57.090Z,17.02
2022-11-26T15:24:25.525Z,17.40
2022-11-26T15:26:53.840Z,17.95
2022-11-26T15:29:34.228Z,20.15
2022-11-26T15:32:03.854Z,21.83
2022-11-26T15:34:35.192Z,21.45
2022-11-26T15:37:05.561Z,23.23
2022-11-26T15:39:33.700Z,22.63
2022-11-26T15:42:21.281Z,21.88
2022-11-26T15:44:50.772Z,20.25
2022-11-26T15:47:22.162Z,18.75
2022-11-26T15:49:54.231Z,19.42
2022-11-26T15:52:30.596Z,18.88
2022-11-26T15:55:18.398Z,19.98
2022-11-26T15:57:53.154Z,18.95
2022-11-26T16:00:23.534Z,18.25
2022-11-26T16:02:52.700Z,18.83
2022-11-26T16:05:28.862Z,18.55
2022-11-26T16:08:00.751Z,20.52
2022-11-26T16:10:35.325Z,20.30
2022-11-26T16:13:23.124Z,21.23
2022-11-26T16:15:57.691Z,21.25
2022-11-26T16:18:35.449Z,19.58
2022-11-26T16:21:09.673Z,18.55
2022-11-26T16:23:39.613Z,19.25
2022-11-26T16:26:11.664Z,18.45
2022-11-26T16:28:40.051Z,19.65
2022-11-26T16:31:08.912Z,19.73
2022-11-26T16:33:37.422Z,21.90
2022-11-26T16:36:21.633Z,19.25
2022-11-26T16:38:51.815Z,19.30
2022-11-26T16:41:21.609Z,23.45
2022-11-26T16:43:51.297Z,22.13
2022-11-26T16:46:23.412Z,17.83
2022-11-26T16:48:52.031Z,16.20
2022-11-26T16:51:21.059Z,18.92
2022-11-26T16:53:50.879Z,19.17
2022-11-26T16:56:22.739Z,13.18
2022-11-26T16:58:51.753Z,15.77
2022-11-26T17:01:20.511Z,18.90
2022-11-26T17:03:51.233Z,22.48
2022-11-26T17:06:26.812Z,24.00
2022-11-26T17:08:57.812Z,19.63
2022-11-26T17:11:26.756Z,18.45
2022-11-26T17:13:55.454Z,19.67
2022-11-26T17:16:26.109Z,25.60
2022-11-26T17:18:54.508Z,21.05
2022-11-26T17:21:22.705Z,19.13
2022-11-26T17:23:51.126Z,19.58
2022-11-26T17:26:23.046Z,19.20
2022-11-26T17:28:53.452Z,18.50
2022-11-26T17:31:21.701Z,16.80
2022-11-26T17:33:51.055Z,20.50
2022-11-26T17:36:21.091Z,20.35
2022-11-26T17:38:49.581Z,17.27
2022-11-26T17:41:21.675Z,18.35
2022-11-26T17:43:49.922Z,18.33
2022-11-26T17:46:20.153Z,18.40
2022-11-26T17:48:55.513Z,18.33
2022-11-26T17:51:26.779Z,19.10
2022-11-26T17:53:55.114Z,20.23
2022-11-26T17:56:26.828Z,18.60
2022-11-26T17:58:55.778Z,21.15
2022-11-26T18:01:24.224Z,18.70
2022-11-26T18:03:53.140Z,21.38
2022-11-26T18:06:32.990Z,21.23
2022-11-26T18:09:01.292Z,22.10
2022-11-26T18:11:44.892Z,21.77
2022-11-26T18:14:13.443Z,22.38
2022-11-26T18:16:41.757Z,23.25
2022-11-26T18:19:12.033Z,25.05
2022-11-26T18:21:40.843Z,23.05
2022-11-26T18:24:10.874Z,25.65
2022-11-26T18:26:40.287Z,26.15
2022-11-26T18:29:11.106Z,25.60
2022-11-26T18:31:40.224Z,23.10
2022-11-26T18:34:09.564Z,24.95
2022-11-26T18:36:37.869Z,29.00
2022-11-26T18:39:06.301Z,32.47
2022-11-26T18:41:34.760Z,29.17
2022-11-26T18:44:04.064Z,27.50
2022-11-26T18:46:34.225Z,26.13
2022-11-26T18:49:02.738Z,25.33
2022-11-26T18:51:31.124Z,25.33
2022-11-26T18:53:59.295Z,25.98
2022-11-26T18:56:28.096Z,25.27
2022-11-26T18:58:57.132Z,26.10
2022-11-26T19:01:27.612Z,26.95
2022-11-26T19:03:58.803Z,29.33
2022-11-26T19:06:28.701Z,28.85
2022-11-26T19:09:00.511Z,30.05
2022-11-26T19:11:29.093Z,29.60
2022-11-26T19:13:59.032Z,27.17
2022-11-26T19:16:28.595Z,29.15
2022-11-26T19:18:58.762Z,28.30
2022-11-26T19:21:29.209Z,27.58
2022-11-26T19:23:59.349Z,28.98
2022-11-26T19:26:27.785Z,29.70
2022-11-26T19:28:56.853Z,27.42
2022-11-26T19:31:26.596Z,30.10
2022-11-26T19:33:58.266Z,29.02
2022-11-26T19:36:27.637Z,31.35
2022-11-26T19:38:56.856Z,29.13
2022-11-26T19:41:26.216Z,28.85
2022-11-26T19:43:55.471Z,27.88
2022-11-26T19:46:25.060Z,27.73
2022-11-26T19:48:53.955Z,27.20
2022-11-26T19:51:25.012Z,27.08
2022-11-26T19:53:54.795Z,28.55
2022-11-26T19:56:25.764Z,26.90
2022-11-26T19:58:54.892Z,26.70
2022-11-26T20:01:23.663Z,27.58
2022-11-26T20:03:51.990Z,28.10
2022-11-26T20:06:22.016Z,28.48
2022-11-26T20:08:51.508Z,27.83
2022-11-26T20:11:20.430Z,28.00
2022-11-26T20:13:49.835Z,27.13
2022-11-26T20:16:22.087Z,29.13
2022-11-26T20:18:50.665Z,30.85
2022-11-26T20:21:22.143Z,29.42
2022-11-26T20:23:52.983Z,28.15
2022-11-26T20:26:22.863Z,27.20
2022-11-26T20:28:51.169Z,29.85
2022-11-26T20:31:23.671Z,27.25
2022-11-26T20:33:53.574Z,28.75
2022-11-26T20:36:23.079Z,29.52
2022-11-26T20:38:54.981Z,27.80
2022-11-26T20:41:24.339Z,30.67
2022-11-26T20:43:57.937Z,28.48
2022-11-26T20:46:27.856Z,29.30
2022-11-26T20:48:56.421Z,29.05
2022-11-26T20:51:25.456Z,28.77
2022-11-26T20:53:58.825Z,30.20
2022-11-26T20:56:30.029Z,28.38
2022-11-26T20:58:58.249Z,28.80
2022-11-26T21:01:28.425Z,28.48
2022-11-26T21:03:57.653Z,29.63
2022-11-26T21:06:30.185Z,28.70
2022-11-26T21:09:01.745Z,27.55
2022-11-26T21:11:29.997Z,26.63
2022-11-26T21:13:59.653Z,27.73
2022-11-26T21:16:28.868Z,30.08
2022-11-26T21:19:00.824Z,32.40
2022-11-26T21:21:30.016Z,29.40
2022-11-26T21:24:04.437Z,29.20
2022-11-26T21:26:33.090Z,28.02
2022-11-26T21:29:02.699Z,27.65
2022-11-26T21:31:35.347Z,27.77
2022-11-26T21:34:05.332Z,28.55
2022-11-26T21:36:35.111Z,26.42
2022-11-26T21:39:06.473Z,26.27
2022-11-26T21:41:34.719Z,27.73
2022-11-26T21:44:04.109Z,32.22
2022-11-26T21:46:37.950Z,29.27
2022-11-26T21:49:07.272Z,31.23
2022-11-26T21:51:36.469Z,31.25
2022-11-26T21:54:06.439Z,28.52
2022-11-26T21:56:34.634Z,31.63
2022-11-26T21:59:04.999Z,34.17
2022-11-26T22:01:35.178Z,31.95
2022-11-26T22:04:07.197Z,36.05
2022-11-26T22:06:36.618Z,47.15
2022-11-26T22:09:06.658Z,38.45
2022-11-26T22:11:37.035Z,40.38
2022-11-26T22:14:05.989Z,34.13
2022-11-26T22:16:35.331Z,31.77
2022-11-26T22:19:03.686Z,30.08
2022-11-26T22:21:34.655Z,27.30
2022-11-26T22:24:04.781Z,27.98
2022-11-26T22:26:39.252Z,27.92
2022-11-26T22:29:07.949Z,29.55
2022-11-26T22:31:37.949Z,29.45
2022-11-26T22:34:08.881Z,28.42
2022-11-26T22:36:37.424Z,28.63
2022-11-26T22:39:09.979Z,28.42
2022-11-26T22:41:40.448Z,28.88
2022-11-26T22:44:09.188Z,29.08
2022-11-26T22:46:38.336Z,30.85
2022-11-26T22:49:07.480Z,30.70
2022-11-26T22:51:36.525Z,30.38
2022-11-26T22:54:10.594Z,29.83
2022-11-26T22:56:40.486Z,28.92
2022-11-26T22:59:12.375Z,30.38
2022-11-26T23:01:40.628Z,29.83
2022-11-26T23:04:10.700Z,28.25
2022-11-26T23:06:40.515Z,26.88
2022-11-26T23:09:10.227Z,26.48
2022-11-26T23:11:41.650Z,27.92
2022-11-26T23:14:11.959Z,28.15
2022-11-26T23:16:43.798Z,28.00
2022-11-26T23:19:15.125Z,27.83
2022-11-26T23:21:44.992Z,26.63
2022-11-26T23:24:14.140Z,27.60
2022-11-26T23:26:44.679Z,30.90
2022-11-26T23:29:13.568Z,32.08
2022-11-26T23:31:43.595Z,28.88
2022-11-26T23:34:12.400Z,30.33
2022-11-26T23:36:41.589Z,28.58
2022-11-26T23:39:12.201Z,27.55
2022-11-26T23:41:40.324Z,29.80
2022-11-26T23:44:09.873Z,29.45
2022-11-26T23:46:40.565Z,27.93
2022-11-26T23:49:08.724Z,26.50
2022-11-26T23:51:36.886Z,28.25
2022-11-26T23:54:05.541Z,27.08
2022-11-26T23:56:35.150Z,27.75
2022-11-26T23:59:04.900Z,28.60
